createdAt,value
2023-02-02T00:00:56.872Z,8.56
2023-02-02T00:03:23.484Z,8.53
2023-02-02T00:05:52.744Z,8.64
2023-02-02T00:08:21.025Z,8.54
2023-02-02T00:10:47.875Z,8.55
2023-02-02T00:13:14.675Z,8.51
2023-02-02T00:15:41.018Z,8.41
2023-02-02T00:18:07.557Z,8.46
2023-02-02T00:20:37.118Z,8.51
2023-02-02T00:23:04.258Z,8.60
2023-02-02T00:25:31.160Z,8.61
2023-02-02T00:27:57.750Z,8.51
2023-02-02T00:30:24.453Z,8.56
2023-02-02T00:32:52.962Z,8.58
2023-02-02T00:35:19.682Z,8.59
2023-02-02T00:37:46.050Z,8.64
2023-02-02T00:40:12.601Z,8.72
2023-02-02T00:42:39.045Z,8.68
2023-02-02T00:45:18.135Z,8.68
2023-02-02T00:47:49.406Z,8.66
2023-02-02T00:50:20.791Z,8.54
2023-02-02T00:52:48.516Z,8.58
2023-02-02T00:55:15.781Z,8.55
2023-02-02T00:57:44.262Z,8.48
2023-02-02T01:00:16.874Z,8.63
2023-02-02T01:02:43.778Z,8.65
2023-02-02T01:05:12.108Z,8.58
2023-02-02T01:07:39.560Z,8.61
2023-02-02T01:10:08.911Z,8.55
2023-02-02T01:12:35.375Z,8.48
2023-02-02T01:15:02.717Z,8.70
2023-02-02T01:17:29.314Z,8.65
2023-02-02T01:19:55.816Z,8.71
2023-02-02T01:22:22.322Z,8.70
2023-02-02T01:24:48.782Z,8.70
2023-02-02T01:27:15.305Z,8.77
2023-02-02T01:29:41.906Z,8.58
2023-02-02T01:32:08.356Z,8.56
2023-02-02T01:34:34.895Z,8.62
2023-02-02T01:37:01.406Z,8.58
2023-02-02T01:39:27.827Z,8.62
2023-02-02T01:41:54.309Z,8.53
2023-02-02T01:44:58.322Z,8.60
2023-02-02T01:47:34.151Z,8.65
2023-02-02T01:50:00.974Z,8.62
2023-02-02T01:52:30.297Z,8.60
2023-02-02T01:55:00.147Z,8.65
2023-02-02T01:57:40.774Z,8.70
2023-02-02T02:00:10.915Z,8.59
2023-02-02T02:02:39.680Z,8.79
2023-02-02T02:05:08.152Z,8.77
2023-02-02T02:07:34.730Z,8.77
2023-02-02T02:10:01.224Z,8.73
2023-02-02T02:12:27.707Z,8.85
2023-02-02T02:15:12.793Z,8.84
2023-02-02T02:17:42.152Z,8.63
2023-02-02T02:20:49.279Z,8.70
2023-02-02T02:23:58.969Z,8.76
2023-02-02T02:26:56.681Z,8.63
2023-02-02T02:29:41.811Z,8.57
2023-02-02T02:32:34.220Z,8.79
2023-02-02T02:35:13.923Z,8.70
2023-02-02T02:37:58.629Z,8.74
2023-02-02T02:40:54.841Z,8.78
2023-02-02T02:43:29.679Z,8.78
2023-02-02T02:45:56.667Z,8.90
2023-02-02T02:48:23.230Z,8.93
2023-02-02T02:50:50.032Z,8.81
2023-02-02T02:53:19.861Z,8.78
2023-02-02T02:56:00.109Z,8.80
2023-02-02T02:58:32.603Z,8.70
2023-02-02T03:01:07.584Z,8.80
2023-02-02T03:03:48.971Z,8.73
2023-02-02T03:06:23.223Z,8.71
2023-02-02T03:09:01.172Z,8.64
2023-02-02T03:11:28.148Z,8.57
2023-02-02T03:13:55.545Z,8.83
2023-02-02T03:16:22.217Z,8.79
2023-02-02T03:18:48.719Z,8.72
2023-02-02T03:21:15.122Z,8.55
2023-02-02T03:23:41.615Z,8.76
2023-02-02T03:26:08.244Z,8.56
2023-02-02T03:28:35.164Z,8.75
2023-02-02T03:31:02.346Z,8.71
2023-02-02T03:33:30.673Z,8.59
2023-02-02T03:35:57.054Z,8.92
2023-02-02T03:38:23.466Z,8.52
2023-02-02T03:40:51.214Z,8.74
2023-02-02T03:43:24.749Z,8.67
2023-02-02T03:45:58.861Z,8.82
2023-02-02T03:48:26.072Z,8.74
2023-02-02T03:50:52.844Z,8.61
2023-02-02T03:53:19.710Z,8.56
2023-02-02T03:55:46.194Z,8.45
2023-02-02T03:58:12.636Z,8.44
2023-02-02T04:00:39.003Z,8.47
2023-02-02T04:03:05.873Z,8.54
2023-02-02T04:05:32.482Z,8.63
2023-02-02T04:07:58.954Z,8.56
2023-02-02T04:10:25.578Z,8.69
2023-02-02T04:12:51.957Z,8.66
2023-02-02T04:15:18.348Z,8.59
2023-02-02T04:17:44.819Z,8.59
2023-02-02T04:20:11.749Z,8.57
2023-02-02T04:22:38.203Z,8.56
2023-02-02T04:25:04.960Z,8.60
2023-02-02T04:27:34.073Z,8.72
2023-02-02T04:30:00.750Z,8.64
2023-02-02T04:32:27.157Z,8.72
2023-02-02T04:34:53.670Z,8.71
2023-02-02T04:37:20.133Z,8.67
2023-02-02T04:39:46.628Z,8.69
2023-02-02T04:42:12.998Z,8.67
2023-02-02T04:44:39.902Z,8.68
2023-02-02T04:47:06.395Z,8.64
2023-02-02T04:49:32.870Z,8.74
2023-02-02T04:51:59.268Z,8.79
2023-02-02T04:54:25.702Z,8.76
2023-02-02T04:56:52.138Z,8.68
2023-02-02T04:59:18.538Z,8.67
2023-02-02T05:01:45.007Z,8.78
2023-02-02T05:04:11.908Z,8.77
2023-02-02T05:06:38.467Z,8.83
2023-02-02T05:09:04.992Z,8.81
2023-02-02T05:11:31.453Z,8.75
2023-02-02T05:13:57.911Z,8.55
2023-02-02T05:16:25.940Z,8.59
2023-02-02T05:18:56.869Z,8.68
2023-02-02T05:21:23.712Z,8.70
2023-02-02T05:23:50.266Z,8.64
2023-02-02T05:26:22.025Z,8.68
2023-02-02T05:28:48.623Z,8.58
2023-02-02T05:31:16.467Z,8.67
2023-02-02T05:33:42.928Z,8.61
2023-02-02T05:36:09.914Z,8.63
2023-02-02T05:38:36.421Z,8.56
2023-02-02T05:41:03.234Z,8.61
2023-02-02T05:43:31.794Z,8.67
2023-02-02T05:45:58.412Z,8.60
2023-02-02T05:48:26.388Z,8.58
2023-02-02T05:51:16.427Z,8.78
2023-02-02T05:53:44.986Z,8.61
2023-02-02T05:56:12.583Z,8.72
2023-02-02T05:58:39.067Z,8.64
2023-02-02T06:01:05.710Z,8.74
2023-02-02T06:03:32.251Z,8.54
2023-02-02T06:05:58.791Z,8.58
2023-02-02T06:08:25.454Z,8.67
2023-02-02T06:10:51.890Z,8.65
2023-02-02T06:13:18.406Z,8.56
2023-02-02T06:15:44.869Z,8.49
2023-02-02T06:18:11.354Z,8.53
2023-02-02T06:20:38.183Z,8.63
2023-02-02T06:23:05.606Z,8.57
2023-02-02T06:25:34.217Z,8.57
2023-02-02T06:28:01.321Z,8.61
2023-02-02T06:30:28.352Z,8.63
2023-02-02T06:32:54.865Z,8.66
2023-02-02T06:35:21.520Z,8.67
2023-02-02T06:37:49.104Z,8.81
2023-02-02T06:40:15.634Z,8.71
2023-02-02T06:42:42.127Z,8.86
2023-02-02T06:45:09.246Z,8.77
2023-02-02T06:47:35.822Z,8.65
2023-02-02T06:50:02.557Z,8.67
2023-02-02T06:52:29.090Z,8.70
2023-02-02T06:54:55.563Z,8.74
2023-02-02T06:57:22.037Z,8.67
2023-02-02T06:59:48.548Z,8.77
2023-02-02T07:02:15.106Z,8.83
2023-02-02T07:04:41.514Z,8.82
2023-02-02T07:07:07.963Z,8.90
2023-02-02T07:09:35.532Z,8.80
2023-02-02T07:12:02.070Z,8.78
2023-02-02T07:14:28.591Z,8.87
2023-02-02T07:16:55.006Z,8.81
2023-02-02T07:19:21.663Z,8.86
2023-02-02T07:21:48.104Z,8.78
2023-02-02T07:24:14.603Z,8.89
2023-02-02T07:26:41.091Z,8.83
2023-02-02T07:29:07.683Z,8.86
2023-02-02T07:31:36.292Z,8.89
2023-02-02T07:34:03.450Z,8.90
2023-02-02T07:36:29.967Z,8.85
2023-02-02T07:38:59.725Z,8.92
2023-02-02T07:41:26.250Z,9.02
2023-02-02T07:43:52.933Z,8.81
2023-02-02T07:46:21.033Z,8.88
2023-02-02T07:48:47.904Z,8.86
2023-02-02T07:51:16.950Z,8.97
2023-02-02T07:53:54.497Z,8.96
2023-02-02T07:56:23.955Z,8.92
2023-02-02T07:58:52.767Z,8.96
2023-02-02T08:01:20.526Z,9.08
2023-02-02T08:03:47.123Z,9.00
2023-02-02T08:06:17.881Z,9.06
2023-02-02T08:08:44.422Z,9.09
2023-02-02T08:11:12.612Z,9.18
2023-02-02T08:13:39.926Z,9.02
2023-02-02T08:16:07.427Z,9.09
2023-02-02T08:18:34.977Z,9.12
2023-02-02T08:21:02.758Z,9.20
2023-02-02T08:23:29.736Z,9.28
2023-02-02T08:26:06.006Z,9.28
2023-02-02T08:28:32.484Z,9.29
2023-02-02T08:31:04.629Z,9.34
2023-02-02T08:33:31.034Z,9.32
2023-02-02T08:35:57.543Z,9.42
2023-02-02T08:38:25.090Z,9.31
2023-02-02T08:40:51.592Z,9.33
2023-02-02T08:43:18.008Z,9.33
2023-02-02T08:46:01.606Z,9.28
2023-02-02T08:48:30.874Z,9.47
2023-02-02T08:50:58.939Z,9.53
2023-02-02T08:53:26.429Z,9.47
2023-02-02T08:56:10.968Z,9.50
2023-02-02T08:58:37.744Z,9.50
2023-02-02T09:01:11.675Z,9.40
2023-02-02T09:03:40.246Z,9.47
2023-02-02T09:06:08.952Z,9.43
2023-02-02T09:08:35.813Z,9.46
2023-02-02T09:11:10.463Z,9.41
2023-02-02T09:13:38.564Z,9.54
2023-02-02T09:16:08.491Z,9.42
2023-02-02T09:18:35.091Z,9.49
2023-02-02T09:21:04.887Z,9.41
2023-02-02T09:23:32.993Z,9.42
2023-02-02T09:26:13.454Z,9.60
2023-02-02T09:28:41.908Z,9.73
2023-02-02T09:31:08.956Z,9.64
2023-02-02T09:33:36.328Z,9.67
2023-02-02T09:36:08.852Z,9.74
2023-02-02T09:38:35.903Z,9.78
2023-02-02T09:41:25.658Z,9.70
2023-02-02T09:44:13.420Z,9.76
2023-02-02T09:47:06.647Z,9.83
2023-02-02T09:49:57.779Z,9.71
2023-02-02T09:52:30.376Z,9.69
2023-02-02T09:55:04.703Z,9.66
2023-02-02T09:57:41.090Z,9.69
2023-02-02T10:00:29.721Z,9.57
2023-02-02T10:03:02.735Z,9.52
2023-02-02T10:05:40.681Z,9.57
2023-02-02T10:08:11.469Z,9.66
2023-02-02T10:10:43.485Z,9.68
2023-02-02T10:13:16.146Z,9.71
2023-02-02T10:15:50.842Z,9.78
2023-02-02T10:18:34.683Z,9.89
2023-02-02T10:21:04.299Z,9.93
2023-02-02T10:23:35.568Z,9.96
2023-02-02T10:26:13.924Z,10.12
2023-02-02T10:29:18.973Z,10.21
2023-02-02T10:32:22.370Z,10.09
2023-02-02T10:35:14.021Z,10.16
2023-02-02T10:37:59.418Z,10.13
2023-02-02T10:40:44.443Z,10.08
2023-02-02T10:43:48.766Z,10.06
2023-02-02T10:46:39.314Z,10.28
2023-02-02T10:49:18.066Z,10.37
2023-02-02T10:52:13.774Z,10.50
2023-02-02T10:55:00.011Z,10.59
2023-02-02T10:58:04.944Z,10.86
2023-02-02T11:00:50.567Z,10.96
2023-02-02T11:03:20.092Z,11.17
2023-02-02T11:06:05.336Z,11.15
2023-02-02T11:08:35.853Z,11.23
2023-02-02T11:11:24.457Z,10.99
2023-02-02T11:14:09.761Z,11.02
2023-02-02T11:16:43.304Z,10.88
2023-02-02T11:19:16.705Z,11.10
2023-02-02T11:21:48.576Z,11.10
2023-02-02T11:24:21.857Z,11.07
2023-02-02T11:26:58.861Z,11.14
2023-02-02T11:29:37.148Z,11.32
2023-02-02T11:32:27.720Z,11.56
2023-02-02T11:35:06.500Z,11.64
2023-02-02T11:37:37.725Z,11.71
2023-02-02T11:40:24.335Z,11.76
2023-02-02T11:42:52.067Z,11.46
2023-02-02T11:45:24.307Z,11.58
2023-02-02T11:47:51.769Z,11.80
2023-02-02T11:50:26.539Z,11.73
2023-02-02T11:52:53.430Z,11.75
2023-02-02T11:55:29.025Z,11.61
2023-02-02T11:58:18.875Z,11.65
2023-02-02T12:00:50.182Z,11.82
2023-02-02T12:03:47.807Z,12.09
2023-02-02T12:06:35.910Z,12.48
2023-02-02T12:09:12.286Z,12.32
2023-02-02T12:11:41.666Z,12.22
2023-02-02T12:14:17.196Z,12.26
2023-02-02T12:16:53.392Z,12.41
2023-02-02T12:19:25.643Z,12.43
2023-02-02T12:22:08.920Z,12.39
2023-02-02T12:25:15.951Z,12.26
2023-02-02T12:28:02.676Z,12.27
2023-02-02T12:30:48.167Z,12.30
2023-02-02T12:33:20.614Z,12.27
2023-02-02T12:35:56.097Z,12.38
2023-02-02T12:38:34.600Z,12.30
2023-02-02T12:41:39.919Z,12.37
2023-02-02T12:44:25.327Z,12.30
2023-02-02T12:47:22.274Z,12.22
2023-02-02T12:50:33.673Z,12.14
2023-02-02T12:53:07.085Z,12.15
2023-02-02T12:55:47.060Z,12.57
2023-02-02T12:58:40.864Z,12.31
2023-02-02T13:01:21.257Z,12.13
2023-02-02T13:03:53.873Z,11.97
2023-02-02T13:06:42.392Z,11.91
2023-02-02T13:09:26.735Z,11.74
2023-02-02T13:12:02.983Z,11.65
2023-02-02T13:14:34.565Z,11.70
2023-02-02T13:17:09.448Z,11.55
2023-02-02T13:19:41.003Z,11.66
2023-02-02T13:22:38.143Z,11.35
2023-02-02T13:25:09.825Z,11.30
2023-02-02T13:27:38.317Z,11.34
2023-02-02T13:30:22.877Z,11.29
2023-02-02T13:32:53.166Z,11.50
2023-02-02T13:35:29.346Z,11.44
2023-02-02T13:38:01.024Z,11.52
2023-02-02T13:40:40.262Z,11.50
2023-02-02T13:43:22.480Z,11.60
2023-02-02T13:46:19.669Z,11.68
2023-02-02T13:48:52.750Z,11.85
2023-02-02T13:51:40.981Z,11.96
2023-02-02T13:54:19.313Z,11.74
2023-02-02T13:57:10.440Z,11.97
2023-02-02T13:59:55.194Z,12.00
2023-02-02T14:02:26.556Z,12.01
2023-02-02T14:04:57.877Z,12.00
2023-02-02T14:07:45.236Z,12.16
2023-02-02T14:10:32.641Z,11.87
2023-02-02T14:13:34.214Z,11.88
2023-02-02T14:16:05.526Z,11.77
2023-02-02T14:18:50.198Z,11.71
2023-02-02T14:21:48.675Z,11.57
2023-02-02T14:24:27.562Z,11.41
2023-02-02T14:26:59.861Z,11.33
2023-02-02T14:29:32.294Z,11.26
2023-02-02T14:32:27.873Z,11.30
2023-02-02T14:35:09.959Z,11.05
2023-02-02T14:38:03.295Z,11.09
2023-02-02T14:40:38.740Z,10.87
2023-02-02T14:43:45.557Z,10.83
2023-02-02T14:46:14.964Z,10.82
2023-02-02T14:49:06.913Z,10.70
2023-02-02T14:51:45.953Z,10.60
2023-02-02T14:54:24.385Z,10.93
2023-02-02T14:56:55.114Z,10.80
2023-02-02T14:59:30.743Z,10.69
2023-02-02T15:02:15.372Z,10.72
2023-02-02T15:04:42.935Z,10.74
2023-02-02T15:07:24.659Z,10.77
2023-02-02T15:09:56.524Z,10.70
2023-02-02T15:12:35.815Z,10.82
2023-02-02T15:15:25.665Z,10.71
2023-02-02T15:18:12.603Z,10.77
2023-02-02T15:20:48.852Z,10.65
2023-02-02T15:23:27.466Z,10.60
2023-02-02T15:26:19.489Z,10.84
2023-02-02T15:28:53.083Z,10.51
2023-02-02T15:31:33.956Z,10.69
2023-02-02T15:34:04.957Z,10.60
2023-02-02T15:36:35.535Z,10.54
2023-02-02T15:39:10.539Z,10.75
2023-02-02T15:41:43.431Z,10.68
2023-02-02T15:44:20.920Z,10.70
2023-02-02T15:46:48.725Z,10.57
2023-02-02T15:49:35.432Z,10.62
2023-02-02T15:52:12.920Z,10.60
2023-02-02T15:54:49.431Z,10.64
2023-02-02T15:57:36.780Z,10.66
2023-02-02T16:00:30.969Z,10.61
2023-02-02T16:03:14.777Z,10.58
2023-02-02T16:06:04.020Z,10.67
2023-02-02T16:08:36.224Z,10.61
2023-02-02T16:11:13.182Z,10.58
2023-02-02T16:13:40.748Z,10.64
2023-02-02T16:16:22.269Z,10.41
2023-02-02T16:19:02.003Z,10.44
2023-02-02T16:21:29.578Z,10.43
2023-02-02T16:23:57.181Z,10.38
2023-02-02T16:26:27.755Z,10.37
2023-02-02T16:28:54.631Z,10.49
2023-02-02T16:31:21.584Z,10.31
2023-02-02T16:33:48.133Z,10.13
2023-02-02T16:36:24.389Z,10.28
2023-02-02T16:38:52.439Z,10.19
2023-02-02T16:41:29.370Z,10.07
2023-02-02T16:43:55.806Z,10.07
2023-02-02T16:46:45.565Z,10.00
2023-02-02T16:49:22.702Z,10.14
2023-02-02T16:52:08.827Z,9.92
2023-02-02T16:54:36.079Z,10.03
2023-02-02T16:57:04.107Z,10.05
2023-02-02T16:59:34.975Z,9.93
2023-02-02T17:02:05.336Z,9.92
2023-02-02T17:04:34.112Z,9.95
2023-02-02T17:07:14.656Z,10.00
2023-02-02T17:09:43.698Z,9.91
2023-02-02T17:12:32.034Z,9.80
2023-02-02T17:15:21.975Z,9.86
2023-02-02T17:17:49.490Z,10.04
2023-02-02T17:20:19.824Z,9.92
2023-02-02T17:23:09.760Z,9.84
2023-02-02T17:25:40.800Z,9.80
2023-02-02T17:28:11.305Z,9.94
2023-02-02T17:30:41.598Z,9.79
2023-02-02T17:33:14.834Z,9.91
2023-02-02T17:35:53.599Z,9.71
2023-02-02T17:38:22.513Z,9.82
2023-02-02T17:40:49.857Z,9.74
2023-02-02T17:43:16.480Z,9.82
2023-02-02T17:45:43.502Z,9.74
2023-02-02T17:48:12.208Z,9.89
2023-02-02T17:50:39.550Z,9.74
2023-02-02T17:53:06.096Z,9.73
2023-02-02T17:55:41.830Z,9.77
2023-02-02T17:58:10.365Z,9.66
2023-02-02T18:00:38.963Z,9.81
2023-02-02T18:03:18.511Z,9.63
2023-02-02T18:05:44.963Z,9.59
2023-02-02T18:08:12.757Z,9.67
2023-02-02T18:10:40.017Z,9.75
2023-02-02T18:13:06.643Z,9.76
2023-02-02T18:15:35.028Z,9.75
2023-02-02T18:18:02.140Z,9.75
2023-02-02T18:20:28.622Z,9.83
2023-02-02T18:22:55.048Z,9.74
2023-02-02T18:25:21.564Z,9.74
2023-02-02T18:27:50.593Z,9.78
2023-02-02T18:30:17.222Z,9.78
2023-02-02T18:32:44.013Z,9.69
2023-02-02T18:35:11.887Z,9.67
2023-02-02T18:37:39.322Z,9.69
2023-02-02T18:40:07.952Z,9.55
2023-02-02T18:42:35.444Z,9.59
2023-02-02T18:45:03.150Z,9.77
2023-02-02T18:47:29.696Z,9.62
2023-02-02T18:49:56.095Z,9.62
2023-02-02T18:52:22.869Z,9.69
2023-02-02T18:54:49.713Z,9.60
2023-02-02T18:57:16.516Z,9.82
2023-02-02T18:59:43.390Z,9.71
2023-02-02T19:02:14.640Z,9.63
2023-02-02T19:05:01.676Z,9.74
2023-02-02T19:07:46.672Z,9.76
2023-02-02T19:10:13.221Z,9.57
2023-02-02T19:12:39.831Z,9.76
2023-02-02T19:15:12.167Z,9.74
2023-02-02T19:17:39.456Z,9.57
2023-02-02T19:20:28.783Z,9.77
2023-02-02T19:23:01.735Z,9.47
2023-02-02T19:25:28.898Z,9.80
2023-02-02T19:27:55.519Z,9.55
2023-02-02T19:30:23.187Z,9.73
2023-02-02T19:32:49.798Z,9.54
2023-02-02T19:35:22.337Z,9.49
2023-02-02T19:37:54.867Z,9.48
2023-02-02T19:40:25.081Z,9.57
2023-02-02T19:42:57.007Z,9.69
2023-02-02T19:45:29.842Z,9.47
2023-02-02T19:47:58.247Z,9.55
2023-02-02T19:50:28.336Z,9.51
2023-02-02T19:52:55.818Z,9.71
2023-02-02T19:55:28.146Z,9.57
2023-02-02T19:58:01.390Z,9.54
2023-02-02T20:00:30.220Z,9.57
2023-02-02T20:02:57.792Z,9.62
2023-02-02T20:05:42.050Z,9.61
2023-02-02T20:08:23.962Z,9.54
2023-02-02T20:10:52.510Z,9.59
2023-02-02T20:13:25.575Z,9.55
2023-02-02T20:16:03.332Z,9.24
2023-02-02T20:18:44.400Z,9.43
2023-02-02T20:21:36.533Z,9.58
2023-02-02T20:24:03.282Z,9.41
2023-02-02T20:26:35.037Z,9.56
2023-02-02T20:29:33.103Z,9.63
2023-02-02T20:31:59.618Z,9.46
2023-02-02T20:34:35.788Z,9.58
2023-02-02T20:37:15.738Z,9.45
2023-02-02T20:40:06.497Z,9.62
2023-02-02T20:42:33.033Z,9.49
2023-02-02T20:44:59.482Z,9.56
2023-02-02T20:47:25.979Z,9.67
2023-02-02T20:49:52.404Z,9.59
2023-02-02T20:52:23.974Z,9.62
2023-02-02T20:54:51.790Z,9.60
2023-02-02T20:57:18.725Z,9.61
2023-02-02T20:59:45.225Z,9.69
2023-02-02T21:02:19.285Z,9.54
2023-02-02T21:04:49.791Z,9.55
2023-02-02T21:07:17.663Z,9.66
2023-02-02T21:09:44.848Z,9.45
2023-02-02T21:12:11.621Z,9.51
2023-02-02T21:14:38.911Z,9.67
2023-02-02T21:17:14.856Z,9.65
2023-02-02T21:19:42.940Z,9.61
2023-02-02T21:22:09.794Z,9.64
2023-02-02T21:24:36.255Z,9.51
2023-02-02T21:27:04.384Z,9.35
2023-02-02T21:29:31.726Z,9.30
2023-02-02T21:32:01.337Z,9.43
2023-02-02T21:34:29.050Z,9.50
2023-02-02T21:36:58.135Z,9.73
2023-02-02T21:39:32.226Z,9.44
2023-02-02T21:42:20.194Z,9.64
2023-02-02T21:45:07.210Z,9.59
2023-02-02T21:47:53.819Z,9.52
2023-02-02T21:50:40.000Z,9.38
2023-02-02T21:53:20.203Z,9.32
2023-02-02T21:55:55.741Z,9.17
2023-02-02T21:58:27.546Z,9.28
2023-02-02T22:00:59.483Z,9.34
2023-02-02T22:03:30.927Z,9.27
2023-02-02T22:06:20.715Z,9.15
2023-02-02T22:08:48.501Z,9.22
2023-02-02T22:11:30.995Z,9.20
2023-02-02T22:14:11.594Z,9.23
2023-02-02T22:16:43.468Z,9.34
2023-02-02T22:19:38.908Z,9.39
2023-02-02T22:22:08.361Z,9.21
2023-02-02T22:24:36.095Z,9.26
2023-02-02T22:27:02.819Z,9.05
2023-02-02T22:29:34.079Z,9.11
2023-02-02T22:32:00.782Z,9.11
2023-02-02T22:34:27.236Z,9.12
2023-02-02T22:36:53.660Z,9.14
2023-02-02T22:39:20.087Z,9.09
2023-02-02T22:41:46.462Z,9.17
2023-02-02T22:44:12.900Z,9.00
2023-02-02T22:46:39.376Z,9.04
2023-02-02T22:49:05.842Z,9.06
2023-02-02T22:51:32.283Z,9.14
2023-02-02T22:53:58.731Z,8.93
2023-02-02T22:56:26.094Z,9.14
2023-02-02T22:58:52.509Z,8.98
2023-02-02T23:01:18.995Z,9.08
2023-02-02T23:03:47.476Z,9.06
2023-02-02T23:06:13.940Z,9.06
2023-02-02T23:08:40.429Z,9.10
2023-02-02T23:11:07.014Z,9.18
2023-02-02T23:13:33.498Z,9.22
2023-02-02T23:15:59.945Z,9.10
2023-02-02T23:18:26.376Z,9.11
2023-02-02T23:20:52.803Z,9.16
2023-02-02T23:23:19.210Z,9.11
2023-02-02T23:25:45.628Z,9.09
2023-02-02T23:28:13.150Z,8.93
2023-02-02T23:30:39.728Z,8.90
2023-02-02T23:33:06.239Z,8.99
2023-02-02T23:35:32.755Z,8.98
2023-02-02T23:37:59.260Z,9.02
2023-02-02T23:40:26.002Z,9.04
2023-02-02T23:42:52.648Z,9.03
2023-02-02T23:45:19.239Z,8.97
2023-02-02T23:47:45.878Z,9.03
2023-02-02T23:50:12.974Z,9.17
2023-02-02T23:52:39.896Z,9.07
2023-02-02T23:55:07.644Z,9.04
2023-02-02T23:57:36.445Z,9.06
